Enchantment of the Seas — C6FZ7 — position and weather

sailwx.info

Track history (hours):
 
Tides and Currents Weather Stations Pressure Air Temp Water Temp Dewpoint Dewpoint Depression Visibility Wind Speed Wind Dir Waves Ship Positions

Enchantment of the Seas (Bahamas)

Last reported at 2017-Aug-15 02:28 UTC. Time now 2017-Aug-16 19:19 UTC.
Position N 26°11' W 079°17'.

Type: Passenger vessel. MMSI: 311733000.

Date/timePositionNaut miles runAvg speedWind from/ knotsBaromVisibWave heightAir tempDewpointWater temp
2017-Aug-15 02:28N 26°11' W 079°17'12 8.4
2017-Aug-15 01:01N 26°05' W 079°29'2 8.9
2017-Aug-15 00:48N 26°04' W 079°31'3 8.9
2017-Aug-15 00:30N 26°03' W 079°34'4 8.8
2017-Aug-15 00:00N 26°01' W 079°38'5 9.1
2017-Aug-14 23:30N 25°58' W 079°42'5 9.5
2017-Aug-14 23:00N 25°56' W 079°47'5 9.7
2017-Aug-14 22:31N 25°53' W 079°51'5 9.6
2017-Aug-14 22:00N 25°51' W 079°56'5 9.3
2017-Aug-14 21:31N 25°48' W 080°00'4 8.9
2017-Aug-14 21:00N 25°46' W 080°04'5 9.4
2017-Aug-14 20:30N 25°46' W 080°10'1 2.1
2017-Aug-14 20:01N 25°47' W 080°11'0 0.0
2017-Aug-14 19:30N 25°47' W 080°11'0 0.0
2017-Aug-14 19:00N 25°47' W 080°11'0 0.0
2017-Aug-14 18:30N 25°47' W 080°11'0 0.0
2017-Aug-14 18:00N 25°47' W 080°11'0 0.0
2017-Aug-14 17:30N 25°47' W 080°11'0 0.0
2017-Aug-14 17:00N 25°47' W 080°11'0 0.0
2017-Aug-14 16:30N 25°47' W 080°11'0 0.0
2017-Aug-14 15:51N 25°47' W 080°11'0 0.0
2017-Aug-14 15:30N 25°47' W 080°11'0 0.0
2017-Aug-14 15:00N 25°47' W 080°11'0 0.0
2017-Aug-14 14:30N 25°47' W 080°11'0 0.0
2017-Aug-14 14:00N 25°47' W 080°11'0 0.0
2017-Aug-14 13:30N 25°47' W 080°11'0 0.0
2017-Aug-14 13:00N 25°47' W 080°11'0 0.0
2017-Aug-14 12:30N 25°47' W 080°11'0 0.0
2017-Aug-14 11:57N 25°47' W 080°11'0 0.0
2017-Aug-14 11:27N 25°47' W 080°11'0 0.0
2017-Aug-14 11:00N 25°47' W 080°11'1 1.2
2017-Aug-14 10:30N 25°47' W 080°10'4 8.4
2017-Aug-14 10:00N 25°46' W 080°06'611.9
2017-Aug-14 09:30N 25°48' W 079°60'612.3
2017-Aug-14 09:01N 25°51' W 079°54'612.0
2017-Aug-14 08:30N 25°54' W 079°48'612.1
2017-Aug-14 08:00N 25°57' W 079°42'612.2
2017-Aug-14 07:31N 25°59' W 079°36'  
2017-Aug-12 01:24N 26°08' W 079°27'5 8.5
2017-Aug-12 00:51N 26°05' W 079°31'3 8.8
2017-Aug-12 00:30N 26°03' W 079°34'4 8.8
2017-Aug-12 00:00N 26°01' W 079°38'4 8.8
2017-Aug-11 23:30N 25°59' W 079°42'4 8.8
2017-Aug-11 23:00N 25°56' W 079°46'4 8.7
2017-Aug-11 22:30N 25°54' W 079°50'4 8.7
2017-Aug-11 22:00N 25°52' W 079°54'4 8.6
2017-Aug-11 21:30N 25°49' W 079°58'4 8.6
2017-Aug-11 21:00N 25°47' W 080°02'510.1
2017-Aug-11 20:30N 25°46' W 080°08'3 5.4
2017-Aug-11 20:00N 25°47' W 080°11'0 0.0
2017-Aug-11 19:30N 25°47' W 080°11'0 0.0
2017-Aug-11 19:00N 25°47' W 080°11'0 0.0
2017-Aug-11 18:30N 25°47' W 080°11'0 0.0
2017-Aug-11 18:00N 25°47' W 080°11'0 0.0
2017-Aug-11 17:30N 25°47' W 080°11'0 0.0
2017-Aug-11 17:00N 25°47' W 080°11'0 0.0
2017-Aug-11 16:30N 25°47' W 080°11'0 0.0
2017-Aug-11 16:00N 25°47' W 080°11'0 0.0
2017-Aug-11 15:24N 25°47' W 080°11'0 0.0
2017-Aug-11 14:57N 25°47' W 080°11'0 0.0
2017-Aug-11 14:00N 25°47' W 080°11'0 0.0
2017-Aug-11 13:27N 25°47' W 080°11'0 0.0
2017-Aug-11 12:54N 25°47' W 080°11'0 0.0
2017-Aug-11 12:30N 25°47' W 080°11'0 0.0
2017-Aug-11 12:00N 25°47' W 080°11'0 0.0
2017-Aug-11 11:27N 25°47' W 080°11'0 0.5
2017-Aug-11 11:01N 25°47' W 080°11'3 6.0
2017-Aug-11 10:30N 25°46' W 080°08'611.3
2017-Aug-11 10:01N 25°47' W 080°02'4 8.8
2017-Aug-11 09:30N 25°44' W 079°58'612.4
2017-Aug-11 09:01N 25°38' W 079°58'612.6
2017-Aug-11 08:31N 25°32' W 079°59'713.4
2017-Aug-11 08:01N 25°25' W 080°01'713.1
2017-Aug-11 07:26N 25°18' W 080°03'6 0.2
2017-Aug-10 05:02N 25°12' W 080°04'016.7
2017-Aug-10 05:00N 25°13' W 080°04'816.4
2017-Aug-10 04:30N 25°19' W 079°58'815.7
2017-Aug-10 04:00N 25°25' W 079°53'815.1
2017-Aug-10 03:30N 25°31' W 079°47'815.3
2017-Aug-10 03:00N 25°37' W 079°42'816.2
2017-Aug-10 02:30N 25°43' W 079°36'917.9
2017-Aug-10 02:00N 25°49' W 079°29'12 0.2
2017-Aug-07 23:14N 26°00' W 079°34'314.2
2017-Aug-07 23:00N 25°59' W 079°38'714.4
2017-Aug-07 22:30N 25°56' W 079°45'714.3
2017-Aug-07 22:00N 25°52' W 079°52'714.9
2017-Aug-07 21:30N 25°49' W 079°59'612.2
2017-Aug-07 21:00N 25°46' W 080°05'4 8.8
2017-Aug-07 20:30N 25°47' W 080°10'1 1.5
2017-Aug-07 19:59N 25°47' W 080°11'0 0.0
2017-Aug-07 19:29N 25°47' W 080°11'0 0.0
2017-Aug-07 18:59N 25°47' W 080°11'0 0.0
2017-Aug-07 18:29N 25°47' W 080°11'0 0.0
2017-Aug-07 17:59N 25°47' W 080°11'0 0.0
2017-Aug-07 17:29N 25°47' W 080°11'0 0.0
2017-Aug-07 16:59N 25°47' W 080°11'0 0.0
2017-Aug-07 16:29N 25°47' W 080°11'0 0.0
2017-Aug-07 15:59N 25°47' W 080°11'0 0.0
2017-Aug-07 15:29N 25°47' W 080°11'0 0.0
2017-Aug-07 14:59N 25°47' W 080°11'0 0.0
2017-Aug-07 14:26N 25°47' W 080°11'0 0.0
2017-Aug-07 13:56N 25°47' W 080°11'0 0.0
2017-Aug-07 13:26N 25°47' W 080°11'0 0.0
2017-Aug-07 12:56N 25°47' W 080°11'0 0.0
2017-Aug-07 12:29N 25°47' W 080°11'0 0.0
2017-Aug-07 11:59N 25°47' W 080°11'0 0.0
2017-Aug-07 11:29N 25°47' W 080°11'0 0.0
2017-Aug-07 10:56N 25°47' W 080°11'1 2.6
2017-Aug-07 10:30N 25°46' W 080°10'4 8.8
2017-Aug-07 10:01N 25°46' W 080°05'5 9.6
2017-Aug-07 09:30N 25°48' W 080°00'611.5
2017-Aug-07 09:00N 25°51' W 079°54'611.6
2017-Aug-07 08:30N 25°54' W 079°49'611.9
2017-Aug-07 08:00N 25°56' W 079°43'612.1
2017-Aug-07 07:30N 25°59' W 079°37'13810.2
2017-Aug-06 18:00N 25°00' W 077°18'18 1.8 090 / 161018.610.8 29.924.0
2017-Aug-06 08:00N 25°18' W 077°18'6 1.0 100 / 161017.910.8 28.221.730.1
2017-Aug-06 02:00N 25°24' W 077°18'40 3.4 090 / 181019.510.8 28.024.9
2017-Aug-05 14:00N 25°48' W 077°54'   110 / 151020.210.8 28.624.1
Track history (hours):
 
Tides and Currents Weather Stations Pressure Air Temp Water Temp Dewpoint Dewpoint Depression Visibility Wind Speed Wind Dir Waves Ship Positions

Enchantment of the Seas (Bahamas)

Last reported at 2017-Aug-15 02:28 UTC. Time now 2017-Aug-16 19:19 UTC.
Position N 26°11' W 079°17'.

Type: Passenger vessel. MMSI: 311733000.

Date/timePositionNaut miles runAvg speedWind from/ knotsBaromVisibWave heightAir tempDewpointWater temp
2017-Aug-15 02:28N 26°11' W 079°17'12 8.4
2017-Aug-15 01:01N 26°05' W 079°29'2 8.9
2017-Aug-15 00:48N 26°04' W 079°31'3 8.9
2017-Aug-15 00:30N 26°03' W 079°34'4 8.8
2017-Aug-15 00:00N 26°01' W 079°38'5 9.1
2017-Aug-14 23:30N 25°58' W 079°42'5 9.5
2017-Aug-14 23:00N 25°56' W 079°47'5 9.7
2017-Aug-14 22:31N 25°53' W 079°51'5 9.6
2017-Aug-14 22:00N 25°51' W 079°56'5 9.3
2017-Aug-14 21:31N 25°48' W 080°00'4 8.9
2017-Aug-14 21:00N 25°46' W 080°04'5 9.4
2017-Aug-14 20:30N 25°46' W 080°10'1 2.1
2017-Aug-14 20:01N 25°47' W 080°11'0 0.0
2017-Aug-14 19:30N 25°47' W 080°11'0 0.0
2017-Aug-14 19:00N 25°47' W 080°11'0 0.0
2017-Aug-14 18:30N 25°47' W 080°11'0 0.0
2017-Aug-14 18:00N 25°47' W 080°11'0 0.0
2017-Aug-14 17:30N 25°47' W 080°11'0 0.0
2017-Aug-14 17:00N 25°47' W 080°11'0 0.0
2017-Aug-14 16:30N 25°47' W 080°11'0 0.0
2017-Aug-14 15:51N 25°47' W 080°11'0 0.0
2017-Aug-14 15:30N 25°47' W 080°11'0 0.0
2017-Aug-14 15:00N 25°47' W 080°11'0 0.0
2017-Aug-14 14:30N 25°47' W 080°11'0 0.0
2017-Aug-14 14:00N 25°47' W 080°11'0 0.0
2017-Aug-14 13:30N 25°47' W 080°11'0 0.0
2017-Aug-14 13:00N 25°47' W 080°11'0 0.0
2017-Aug-14 12:30N 25°47' W 080°11'0 0.0
2017-Aug-14 11:57N 25°47' W 080°11'0 0.0
2017-Aug-14 11:27N 25°47' W 080°11'0 0.0
2017-Aug-14 11:00N 25°47' W 080°11'1 1.2
2017-Aug-14 10:30N 25°47' W 080°10'4 8.4
2017-Aug-14 10:00N 25°46' W 080°06'611.9
2017-Aug-14 09:30N 25°48' W 079°60'612.3
2017-Aug-14 09:01N 25°51' W 079°54'612.0
2017-Aug-14 08:30N 25°54' W 079°48'612.1
2017-Aug-14 08:00N 25°57' W 079°42'612.2
2017-Aug-14 07:31N 25°59' W 079°36'  
2017-Aug-12 01:24N 26°08' W 079°27'5 8.5
2017-Aug-12 00:51N 26°05' W 079°31'3 8.8
2017-Aug-12 00:30N 26°03' W 079°34'4 8.8
2017-Aug-12 00:00N 26°01' W 079°38'4 8.8
2017-Aug-11 23:30N 25°59' W 079°42'4 8.8
2017-Aug-11 23:00N 25°56' W 079°46'4 8.7
2017-Aug-11 22:30N 25°54' W 079°50'4 8.7
2017-Aug-11 22:00N 25°52' W 079°54'4 8.6
2017-Aug-11 21:30N 25°49' W 079°58'4 8.6
2017-Aug-11 21:00N 25°47' W 080°02'510.1
2017-Aug-11 20:30N 25°46' W 080°08'3 5.4
2017-Aug-11 20:00N 25°47' W 080°11'0 0.0
2017-Aug-11 19:30N 25°47' W 080°11'0 0.0
2017-Aug-11 19:00N 25°47' W 080°11'0 0.0
2017-Aug-11 18:30N 25°47' W 080°11'0 0.0
2017-Aug-11 18:00N 25°47' W 080°11'0 0.0
2017-Aug-11 17:30N 25°47' W 080°11'0 0.0
2017-Aug-11 17:00N 25°47' W 080°11'0 0.0
2017-Aug-11 16:30N 25°47' W 080°11'0 0.0
2017-Aug-11 16:00N 25°47' W 080°11'0 0.0
2017-Aug-11 15:24N 25°47' W 080°11'0 0.0
2017-Aug-11 14:57N 25°47' W 080°11'0 0.0
2017-Aug-11 14:00N 25°47' W 080°11'0 0.0
2017-Aug-11 13:27N 25°47' W 080°11'0 0.0
2017-Aug-11 12:54N 25°47' W 080°11'0 0.0
2017-Aug-11 12:30N 25°47' W 080°11'0 0.0
2017-Aug-11 12:00N 25°47' W 080°11'0 0.0
2017-Aug-11 11:27N 25°47' W 080°11'0 0.5
2017-Aug-11 11:01N 25°47' W 080°11'3 6.0
2017-Aug-11 10:30N 25°46' W 080°08'611.3
2017-Aug-11 10:01N 25°47' W 080°02'4 8.8
2017-Aug-11 09:30N 25°44' W 079°58'612.4
2017-Aug-11 09:01N 25°38' W 079°58'612.6
2017-Aug-11 08:31N 25°32' W 079°59'713.4
2017-Aug-11 08:01N 25°25' W 080°01'713.1
2017-Aug-11 07:26N 25°18' W 080°03'6 0.2
2017-Aug-10 05:02N 25°12' W 080°04'016.7
2017-Aug-10 05:00N 25°13' W 080°04'816.4
2017-Aug-10 04:30N 25°19' W 079°58'815.7
2017-Aug-10 04:00N 25°25' W 079°53'815.1
2017-Aug-10 03:30N 25°31' W 079°47'815.3
2017-Aug-10 03:00N 25°37' W 079°42'816.2
2017-Aug-10 02:30N 25°43' W 079°36'917.9
2017-Aug-10 02:00N 25°49' W 079°29'12 0.2
2017-Aug-07 23:14N 26°00' W 079°34'314.2
2017-Aug-07 23:00N 25°59' W 079°38'714.4
2017-Aug-07 22:30N 25°56' W 079°45'714.3
2017-Aug-07 22:00N 25°52' W 079°52'714.9
2017-Aug-07 21:30N 25°49' W 079°59'612.2
2017-Aug-07 21:00N 25°46' W 080°05'4 8.8
2017-Aug-07 20:30N 25°47' W 080°10'1 1.5
2017-Aug-07 19:59N 25°47' W 080°11'0 0.0
2017-Aug-07 19:29N 25°47' W 080°11'0 0.0
2017-Aug-07 18:59N 25°47' W 080°11'0 0.0
2017-Aug-07 18:29N 25°47' W 080°11'0 0.0
2017-Aug-07 17:59N 25°47' W 080°11'0 0.0
2017-Aug-07 17:29N 25°47' W 080°11'0 0.0
2017-Aug-07 16:59N 25°47' W 080°11'0 0.0
2017-Aug-07 16:29N 25°47' W 080°11'0 0.0
2017-Aug-07 15:59N 25°47' W 080°11'0 0.0
2017-Aug-07 15:29N 25°47' W 080°11'0 0.0
2017-Aug-07 14:59N 25°47' W 080°11'0 0.0
2017-Aug-07 14:26N 25°47' W 080°11'0 0.0
2017-Aug-07 13:56N 25°47' W 080°11'0 0.0
2017-Aug-07 13:26N 25°47' W 080°11'0 0.0
2017-Aug-07 12:56N 25°47' W 080°11'0 0.0
2017-Aug-07 12:29N 25°47' W 080°11'0 0.0
2017-Aug-07 11:59N 25°47' W 080°11'0 0.0
2017-Aug-07 11:29N 25°47' W 080°11'0 0.0
2017-Aug-07 10:56N 25°47' W 080°11'1 2.6
2017-Aug-07 10:30N 25°46' W 080°10'4 8.8
2017-Aug-07 10:01N 25°46' W 080°05'5 9.6
2017-Aug-07 09:30N 25°48' W 080°00'611.5
2017-Aug-07 09:00N 25°51' W 079°54'611.6
2017-Aug-07 08:30N 25°54' W 079°49'611.9
2017-Aug-07 08:00N 25°56' W 079°43'612.1
2017-Aug-07 07:30N 25°59' W 079°37'13810.2
2017-Aug-06 18:00N 25°00' W 077°18'18 1.8 090 / 161018.610.8 29.924.0
2017-Aug-06 08:00N 25°18' W 077°18'6 1.0 100 / 161017.910.8 28.221.730.1
2017-Aug-06 02:00N 25°24' W 077°18'40 3.4 090 / 181019.510.8 28.024.9
2017-Aug-05 14:00N 25°48' W 077°54'   110 / 151020.210.8 28.624.1

Dump ship's entire track history